createdAt,value
2022-07-25T00:00:33.819Z,14.00
2022-07-25T00:03:06.944Z,14.00
2022-07-25T00:05:41.003Z,14.10
2022-07-25T00:08:14.129Z,14.10
2022-07-25T00:10:47.112Z,14.10
2022-07-25T00:13:19.987Z,14.10
2022-07-25T00:15:57.007Z,14.10
2022-07-25T00:18:30.188Z,14.10
2022-07-25T00:21:03.303Z,14.10
2022-07-25T00:23:36.222Z,14.10
2022-07-25T00:26:09.419Z,14.10
2022-07-25T00:28:42.353Z,14.10
2022-07-25T00:31:15.379Z,14.10
2022-07-25T00:33:48.335Z,14.10
2022-07-25T00:36:21.862Z,14.10
2022-07-25T00:38:54.902Z,14.10
2022-07-25T00:41:27.883Z,14.10
2022-07-25T00:44:00.954Z,14.10
2022-07-25T00:46:34.725Z,14.10
2022-07-25T00:49:07.930Z,14.10
2022-07-25T00:51:41.061Z,14.10
2022-07-25T00:54:14.499Z,14.10
2022-07-25T00:56:47.489Z,14.10
2022-07-25T00:59:20.829Z,14.20
2022-07-25T01:01:53.723Z,14.20
2022-07-25T01:04:30.990Z,14.20
2022-07-25T01:07:04.814Z,14.20
2022-07-25T01:09:37.697Z,14.20
2022-07-25T01:12:11.110Z,14.20
2022-07-25T01:14:44.168Z,14.20
2022-07-25T01:17:17.078Z,14.20
2022-07-25T01:19:50.083Z,14.20
2022-07-25T01:22:23.051Z,14.20
2022-07-25T01:24:56.051Z,14.30
2022-07-25T01:27:28.740Z,14.30
2022-07-25T01:30:01.507Z,14.30
2022-07-25T01:32:34.418Z,14.30
2022-07-25T01:35:08.298Z,14.30
2022-07-25T01:37:41.161Z,14.30
2022-07-25T01:40:15.547Z,14.30
2022-07-25T01:42:48.588Z,14.40
2022-07-25T01:45:21.449Z,14.40
2022-07-25T01:47:54.329Z,14.40
2022-07-25T01:50:28.681Z,14.40
2022-07-25T01:53:01.857Z,14.40
2022-07-25T01:55:34.638Z,14.40
2022-07-25T01:58:10.452Z,14.40
2022-07-25T02:00:47.011Z,14.40
2022-07-25T02:03:34.871Z,14.50
2022-07-25T02:06:09.370Z,14.50
2022-07-25T02:08:42.406Z,14.50
2022-07-25T02:11:15.405Z,14.50
2022-07-25T02:13:48.664Z,14.50
2022-07-25T02:16:21.604Z,14.50
2022-07-25T02:18:55.906Z,14.50
2022-07-25T02:21:28.861Z,14.50
2022-07-25T02:24:01.606Z,14.50
2022-07-25T02:26:35.205Z,14.50
2022-07-25T02:29:07.807Z,14.50
2022-07-25T02:31:40.565Z,14.50
2022-07-25T02:34:15.908Z,14.50
2022-07-25T02:36:48.491Z,14.60
2022-07-25T02:39:21.399Z,14.60
2022-07-25T02:41:54.232Z,14.60
2022-07-25T02:44:27.290Z,14.60
2022-07-25T02:47:00.093Z,14.60
2022-07-25T02:49:33.012Z,14.60
2022-07-25T02:52:05.772Z,14.60
2022-07-25T02:54:39.140Z,14.60
2022-07-25T02:57:11.994Z,14.60
2022-07-25T02:59:44.615Z,14.60
2022-07-25T03:02:17.562Z,14.60
2022-07-25T03:04:50.256Z,14.60
2022-07-25T03:07:23.310Z,14.60
2022-07-25T03:09:56.167Z,14.60
2022-07-25T03:12:29.165Z,14.60
2022-07-25T03:15:02.131Z,14.60
2022-07-25T03:17:35.091Z,14.60
2022-07-25T03:20:12.406Z,14.60
2022-07-25T03:22:45.328Z,14.60
2022-07-25T03:25:21.729Z,14.60
2022-07-25T03:27:54.309Z,14.60
2022-07-25T03:30:27.148Z,14.60
2022-07-25T03:33:00.008Z,14.60
2022-07-25T03:35:32.944Z,14.60
2022-07-25T03:38:06.806Z,14.60
2022-07-25T03:40:39.515Z,14.60
2022-07-25T03:43:12.462Z,14.60
2022-07-25T03:45:49.757Z,14.60
2022-07-25T03:48:22.723Z,14.60
2022-07-25T03:50:55.661Z,14.60
2022-07-25T03:53:29.024Z,14.60
2022-07-25T03:56:01.946Z,14.60
2022-07-25T03:58:34.897Z,14.60
2022-07-25T04:01:07.961Z,14.60
2022-07-25T04:03:42.297Z,14.60
2022-07-25T04:06:16.357Z,14.60
2022-07-25T04:08:49.351Z,14.60
2022-07-25T04:11:21.971Z,14.60
2022-07-25T04:13:55.758Z,14.60
2022-07-25T04:16:28.804Z,14.60
2022-07-25T04:19:02.363Z,14.60
2022-07-25T04:21:35.216Z,14.60
2022-07-25T04:24:08.396Z,14.70
2022-07-25T04:26:41.279Z,14.60
2022-07-25T04:29:18.277Z,14.60
2022-07-25T04:31:51.349Z,14.60
2022-07-25T04:34:24.214Z,14.70
2022-07-25T04:36:56.969Z,14.70
2022-07-25T04:39:29.823Z,14.70
2022-07-25T04:42:02.765Z,14.70
2022-07-25T04:44:35.506Z,14.70
2022-07-25T04:47:08.421Z,14.70
2022-07-25T04:49:41.156Z,14.70
2022-07-25T04:52:18.863Z,14.70
2022-07-25T04:54:51.689Z,14.70
2022-07-25T04:57:24.385Z,14.70
2022-07-25T04:59:57.199Z,14.70
2022-07-25T05:02:29.999Z,14.70
2022-07-25T05:05:03.235Z,14.70
2022-07-25T05:07:36.180Z,14.80
2022-07-25T05:10:09.935Z,14.80
2022-07-25T05:12:42.860Z,14.70
2022-07-25T05:15:16.572Z,14.70
2022-07-25T05:17:50.242Z,14.70
2022-07-25T05:20:23.259Z,14.80
2022-07-25T05:22:56.686Z,14.80
2022-07-25T05:25:33.857Z,14.80
2022-07-25T05:28:06.806Z,14.80
2022-07-25T05:30:40.212Z,14.80
2022-07-25T05:33:16.048Z,14.80
2022-07-25T05:35:49.282Z,14.80
2022-07-25T05:38:22.122Z,14.80
2022-07-25T05:40:55.033Z,14.80
2022-07-25T05:43:31.850Z,14.80
2022-07-25T05:46:08.203Z,14.80
2022-07-25T05:48:45.309Z,14.80
2022-07-25T05:51:19.181Z,14.80
2022-07-25T05:53:52.192Z,14.80
2022-07-25T05:56:29.765Z,14.80
2022-07-25T05:59:07.556Z,14.80
2022-07-25T06:01:40.762Z,14.80
2022-07-25T06:04:13.602Z,14.90
2022-07-25T06:06:47.582Z,14.80
2022-07-25T06:09:20.897Z,14.90
2022-07-25T06:11:59.895Z,14.90
2022-07-25T06:14:31.697Z,14.90
2022-07-25T06:17:04.668Z,14.90
2022-07-25T06:19:37.493Z,14.90
2022-07-25T06:22:15.402Z,14.90
2022-07-25T06:24:48.670Z,15.00
2022-07-25T06:27:24.933Z,15.00
2022-07-25T06:29:55.880Z,15.00
2022-07-25T06:32:28.960Z,15.00
2022-07-25T06:35:01.824Z,15.00
2022-07-25T06:37:34.571Z,15.00
2022-07-25T06:40:07.631Z,15.10
2022-07-25T06:42:47.657Z,15.10
2022-07-25T06:45:20.996Z,15.10
2022-07-25T06:47:54.259Z,15.10
2022-07-25T06:50:27.300Z,15.10
2022-07-25T06:53:00.464Z,15.10
2022-07-25T06:55:39.951Z,15.10
2022-07-25T06:58:12.537Z,15.10
2022-07-25T07:00:54.042Z,15.10
2022-07-25T07:03:27.167Z,15.20
2022-07-25T07:06:00.351Z,15.10
2022-07-25T07:08:33.279Z,15.20
2022-07-25T07:11:06.084Z,15.20
2022-07-25T07:13:39.679Z,15.20
2022-07-25T07:16:13.086Z,15.20
2022-07-25T07:18:49.328Z,15.20
2022-07-25T07:21:21.558Z,15.20
2022-07-25T07:23:54.767Z,15.20
2022-07-25T07:26:32.143Z,15.20
2022-07-25T07:29:08.767Z,15.20
2022-07-25T07:31:45.254Z,15.20
2022-07-25T07:34:18.389Z,15.20
2022-07-25T07:36:51.657Z,15.20
2022-07-25T07:39:24.833Z,15.30
2022-07-25T07:41:58.048Z,15.30
2022-07-25T07:44:32.187Z,15.30
2022-07-25T07:47:06.030Z,15.30
2022-07-25T07:49:39.954Z,15.30
2022-07-25T07:52:13.035Z,15.30
2022-07-25T07:55:03.603Z,15.30
2022-07-25T07:57:36.713Z,15.30
2022-07-25T08:00:16.505Z,15.30
2022-07-25T08:02:52.279Z,15.30
2022-07-25T08:05:29.973Z,15.30
2022-07-25T08:08:07.310Z,15.30
2022-07-25T08:10:41.915Z,15.30
2022-07-25T08:13:24.593Z,15.30
2022-07-25T08:16:00.407Z,15.40
2022-07-25T08:18:36.780Z,15.40
2022-07-25T08:21:11.008Z,15.40
2022-07-25T08:23:48.156Z,15.40
2022-07-25T08:26:21.151Z,15.40
2022-07-25T08:29:17.140Z,15.40
2022-07-25T08:31:30.115Z,15.40
2022-07-25T08:34:03.265Z,15.40
2022-07-25T08:36:37.528Z,15.40
2022-07-25T08:39:10.574Z,15.40
2022-07-25T08:41:45.458Z,15.40
2022-07-25T08:44:20.385Z,15.50
2022-07-25T08:46:53.838Z,15.50
2022-07-25T08:49:26.946Z,15.50
2022-07-25T08:52:01.211Z,15.50
2022-07-25T08:54:34.951Z,15.50
2022-07-25T08:57:09.768Z,15.50
2022-07-25T08:59:42.768Z,15.50
2022-07-25T09:02:19.845Z,15.60
2022-07-25T09:04:52.827Z,15.60
2022-07-25T09:07:42.394Z,15.60
2022-07-25T09:10:20.274Z,15.60
2022-07-25T09:13:02.811Z,15.60
2022-07-25T09:15:40.596Z,15.60
2022-07-25T09:18:19.542Z,15.60
2022-07-25T09:20:54.293Z,15.60
2022-07-25T09:23:41.091Z,15.60
2022-07-25T09:26:15.497Z,15.60
2022-07-25T09:28:50.344Z,15.60
2022-07-25T09:31:23.143Z,15.60
2022-07-25T09:34:00.907Z,15.60
2022-07-25T09:36:33.893Z,15.60
2022-07-25T09:39:08.449Z,15.70
2022-07-25T09:41:44.602Z,15.70
2022-07-25T09:44:24.924Z,15.70
2022-07-25T09:47:02.014Z,15.70
2022-07-25T09:49:45.603Z,15.70
2022-07-25T09:52:19.618Z,15.70
2022-07-25T09:54:52.410Z,15.60
2022-07-25T09:57:26.050Z,15.70
2022-07-25T09:59:59.240Z,15.70
2022-07-25T10:02:56.722Z,15.70
2022-07-25T10:05:52.925Z,15.70
2022-07-25T10:08:27.093Z,15.70
2022-07-25T10:11:08.015Z,15.70
2022-07-25T10:13:41.079Z,15.70
2022-07-25T10:16:21.945Z,15.70
2022-07-25T10:18:56.297Z,15.70
2022-07-25T10:21:34.948Z,15.70
2022-07-25T10:24:10.135Z,15.70
2022-07-25T10:26:45.575Z,15.70
2022-07-25T10:29:19.273Z,15.70
2022-07-25T10:31:51.991Z,15.70
2022-07-25T10:34:40.226Z,15.80
2022-07-25T10:37:18.659Z,15.80
2022-07-25T10:39:51.704Z,15.80
2022-07-25T10:42:25.778Z,15.80
2022-07-25T10:45:03.187Z,15.80
2022-07-25T10:47:46.538Z,15.80
2022-07-25T10:50:34.678Z,15.80
2022-07-25T10:53:03.198Z,15.80
2022-07-25T10:55:37.612Z,15.80
2022-07-25T10:58:18.429Z,15.80
2022-07-25T11:00:49.234Z,15.80
2022-07-25T11:03:27.650Z,15.80
2022-07-25T11:06:00.722Z,15.80
2022-07-25T11:08:38.158Z,15.80
2022-07-25T11:11:11.229Z,15.80
2022-07-25T11:13:46.365Z,15.80
2022-07-25T11:16:19.244Z,15.90
2022-07-25T11:18:52.249Z,15.90
2022-07-25T11:21:25.340Z,15.90
2022-07-25T11:23:58.587Z,15.90
2022-07-25T11:26:31.415Z,15.90
2022-07-25T11:29:04.840Z,15.90
2022-07-25T11:31:38.017Z,15.90
2022-07-25T11:34:11.269Z,15.90
2022-07-25T11:36:44.267Z,15.90
2022-07-25T11:39:19.031Z,15.90
2022-07-25T11:41:53.178Z,15.90
2022-07-25T11:44:27.757Z,15.90
2022-07-25T11:47:00.551Z,15.90
2022-07-25T11:49:34.463Z,15.90
2022-07-25T11:52:07.695Z,15.90
2022-07-25T11:54:41.950Z,15.90
2022-07-25T11:57:17.538Z,15.90
2022-07-25T11:59:50.421Z,15.90
2022-07-25T12:02:34.389Z,15.90
2022-07-25T12:05:16.502Z,15.90
2022-07-25T12:07:54.186Z,15.90
2022-07-25T12:10:39.984Z,15.90
2022-07-25T12:13:13.461Z,15.90
2022-07-25T12:15:46.497Z,15.90
2022-07-25T12:18:19.182Z,15.90
2022-07-25T12:20:55.260Z,15.90
2022-07-25T12:23:29.472Z,15.90
2022-07-25T12:26:06.540Z,15.90
2022-07-25T12:28:39.356Z,15.90
2022-07-25T12:31:12.217Z,15.90
2022-07-25T12:33:48.546Z,15.90
2022-07-25T12:36:19.461Z,15.90
2022-07-25T12:38:52.534Z,15.90
2022-07-25T12:41:29.756Z,16.00
2022-07-25T12:44:07.998Z,16.00
2022-07-25T12:46:45.859Z,16.00
2022-07-25T12:49:16.514Z,16.00
2022-07-25T12:51:51.568Z,16.00
2022-07-25T12:54:23.992Z,16.00
2022-07-25T12:57:01.737Z,16.00
2022-07-25T12:59:35.090Z,16.00
2022-07-25T13:02:08.253Z,16.00
2022-07-25T13:04:41.653Z,16.00
2022-07-25T13:07:20.802Z,16.00
2022-07-25T13:09:53.802Z,16.00
2022-07-25T13:12:26.968Z,16.00
2022-07-25T13:14:59.834Z,16.00
2022-07-25T13:17:35.767Z,16.00
2022-07-25T13:20:09.797Z,16.00
2022-07-25T13:22:43.083Z,16.00
2022-07-25T13:25:15.868Z,16.10
2022-07-25T13:27:49.427Z,16.10
2022-07-25T13:32:59.527Z,16.10
2022-07-25T13:35:38.099Z,16.10
2022-07-25T13:38:07.671Z,16.10
2022-07-25T13:40:41.842Z,16.10
2022-07-25T13:43:16.028Z,16.10
2022-07-25T13:45:49.421Z,16.10
2022-07-25T13:48:30.517Z,16.10
2022-07-25T13:50:56.910Z,16.10
2022-07-25T13:53:30.689Z,16.10
2022-07-25T13:56:03.872Z,16.10
2022-07-25T13:58:37.061Z,16.10
2022-07-25T14:01:10.839Z,16.10
2022-07-25T14:03:44.000Z,16.10
2022-07-25T14:06:17.211Z,16.10
2022-07-25T14:08:54.707Z,16.10
2022-07-25T14:11:30.621Z,16.10
2022-07-25T14:14:02.898Z,16.10
2022-07-25T14:16:36.325Z,16.20
2022-07-25T14:19:09.905Z,16.20
2022-07-25T14:21:43.443Z,16.20
2022-07-25T14:24:16.520Z,16.20
2022-07-25T14:26:50.620Z,16.20
2022-07-25T14:29:28.615Z,16.20
2022-07-25T14:31:57.779Z,16.20
2022-07-25T14:34:34.815Z,16.20
2022-07-25T14:37:12.721Z,16.30
2022-07-25T14:39:48.277Z,16.30
2022-07-25T14:42:20.069Z,16.30
2022-07-25T14:44:53.893Z,16.30
2022-07-25T14:47:31.258Z,16.30
2022-07-25T14:50:04.200Z,16.30
2022-07-25T14:52:37.180Z,16.40
2022-07-25T14:55:11.235Z,16.40
2022-07-25T14:57:44.113Z,16.40
2022-07-25T15:00:18.132Z,16.40
2022-07-25T15:02:52.488Z,16.40
2022-07-25T15:05:29.558Z,16.40
2022-07-25T15:08:02.360Z,16.40
2022-07-25T15:10:36.651Z,16.40
2022-07-25T15:15:43.992Z,16.40
2022-07-25T15:18:17.509Z,16.40
2022-07-25T15:20:50.663Z,16.40
2022-07-25T15:23:25.839Z,16.40
2022-07-25T15:26:02.809Z,16.40
2022-07-25T15:28:35.394Z,16.40
2022-07-25T15:31:09.366Z,16.40
2022-07-25T15:33:42.363Z,16.40
2022-07-25T15:36:15.770Z,16.40
2022-07-25T15:38:49.425Z,16.40
2022-07-25T15:41:22.759Z,16.40
2022-07-25T15:43:55.666Z,16.40
2022-07-25T15:46:28.552Z,16.40
2022-07-25T15:49:01.611Z,16.40
2022-07-25T15:51:34.613Z,16.40
2022-07-25T15:54:08.787Z,16.40
2022-07-25T15:56:41.645Z,16.40
2022-07-25T15:59:14.644Z,16.40
2022-07-25T16:01:47.644Z,16.40
2022-07-25T16:04:21.227Z,16.30
2022-07-25T16:06:54.214Z,16.30
2022-07-25T16:09:27.436Z,16.30
2022-07-25T16:12:00.772Z,16.30
2022-07-25T16:14:33.654Z,16.30
2022-07-25T16:17:06.845Z,16.30
2022-07-25T16:19:39.896Z,16.30
2022-07-25T16:22:17.020Z,16.30
2022-07-25T16:24:50.436Z,16.30
2022-07-25T16:27:23.286Z,16.30
2022-07-25T16:29:56.112Z,16.30
2022-07-25T16:32:29.586Z,16.30
2022-07-25T16:35:02.492Z,16.20
2022-07-25T16:37:35.460Z,16.20
2022-07-25T16:40:09.927Z,16.20
2022-07-25T16:42:42.833Z,16.20
2022-07-25T16:45:18.671Z,16.20
2022-07-25T16:47:51.493Z,16.20
2022-07-25T16:50:24.611Z,16.20
2022-07-25T16:52:57.595Z,16.20
2022-07-25T16:55:32.912Z,16.20
2022-07-25T16:58:05.868Z,16.20
2022-07-25T17:00:38.930Z,16.20
2022-07-25T17:03:11.895Z,16.20
2022-07-25T17:05:45.148Z,16.20
2022-07-25T17:08:18.089Z,16.20
2022-07-25T17:10:51.245Z,16.10
2022-07-25T17:13:24.275Z,16.10
2022-07-25T17:15:57.157Z,16.10
2022-07-25T17:18:29.989Z,16.10
2022-07-25T17:21:02.985Z,16.10
2022-07-25T17:23:36.119Z,16.10
2022-07-25T17:26:09.015Z,16.10
2022-07-25T17:28:41.796Z,16.10
2022-07-25T17:31:14.583Z,16.00
2022-07-25T17:33:47.664Z,16.00
2022-07-25T17:36:21.432Z,16.00
2022-07-25T17:38:54.398Z,16.00
2022-07-25T17:41:27.269Z,16.00
2022-07-25T17:44:01.873Z,16.00
2022-07-25T17:46:38.982Z,15.90
2022-07-25T17:49:11.885Z,15.90
2022-07-25T17:51:44.874Z,15.90
2022-07-25T17:54:17.728Z,15.90
2022-07-25T17:56:50.720Z,15.80
2022-07-25T17:59:23.289Z,15.80
2022-07-25T18:01:56.230Z,15.80
2022-07-25T18:04:29.065Z,15.80
2022-07-25T18:07:02.204Z,15.80
2022-07-25T18:09:35.135Z,15.70
2022-07-25T18:12:08.863Z,15.70
2022-07-25T18:14:45.975Z,15.70
2022-07-25T18:17:23.569Z,15.70
2022-07-25T18:19:56.372Z,15.70
2022-07-25T18:22:29.048Z,15.70
2022-07-25T18:25:01.928Z,15.60
2022-07-25T18:27:34.649Z,15.60
2022-07-25T18:30:11.653Z,15.50
2022-07-25T18:32:45.846Z,15.50
2022-07-25T18:35:18.687Z,15.50
2022-07-25T18:37:55.654Z,15.50
2022-07-25T18:40:32.405Z,15.50
2022-07-25T18:43:08.145Z,15.50
2022-07-25T18:45:40.529Z,15.40
2022-07-25T18:48:14.027Z,15.40
2022-07-25T18:50:47.066Z,15.30
2022-07-25T18:53:20.396Z,15.20
2022-07-25T18:55:53.228Z,15.20
2022-07-25T18:58:26.603Z,15.10
2022-07-25T19:00:59.769Z,15.10
2022-07-25T19:03:33.933Z,15.00
2022-07-25T19:06:08.073Z,15.00
2022-07-25T19:08:41.528Z,15.00
2022-07-25T19:11:19.237Z,15.00
2022-07-25T19:13:52.090Z,14.90
2022-07-25T19:16:25.182Z,14.90
2022-07-25T19:18:58.776Z,14.80
2022-07-25T19:21:31.761Z,14.80
2022-07-25T19:24:05.215Z,14.80
2022-07-25T19:26:41.297Z,14.80
2022-07-25T19:29:14.577Z,14.80
2022-07-25T19:31:47.795Z,14.80
2022-07-25T19:34:20.679Z,14.80
2022-07-25T19:36:53.470Z,14.80
2022-07-25T19:39:26.633Z,14.80
2022-07-25T19:42:03.765Z,14.80
2022-07-25T19:44:36.727Z,14.80
2022-07-25T19:47:11.878Z,14.80
2022-07-25T19:49:44.860Z,14.80
2022-07-25T19:52:17.709Z,14.80
2022-07-25T19:54:50.795Z,14.80
2022-07-25T19:57:24.018Z,14.80
2022-07-25T20:00:01.044Z,14.80
2022-07-25T20:02:34.039Z,14.80
2022-07-25T20:05:07.445Z,14.80
2022-07-25T20:07:41.134Z,14.70
2022-07-25T20:10:17.865Z,14.70
2022-07-25T20:12:48.960Z,14.70
2022-07-25T20:15:21.982Z,14.70
2022-07-25T20:17:57.429Z,14.70
2022-07-25T20:20:30.778Z,14.70
2022-07-25T20:23:04.212Z,14.70
2022-07-25T20:25:37.571Z,14.70
2022-07-25T20:28:10.621Z,14.70
2022-07-25T20:30:43.786Z,14.80
2022-07-25T20:33:21.692Z,14.80
2022-07-25T20:35:55.017Z,14.80
2022-07-25T20:38:29.601Z,14.90
2022-07-25T20:41:02.670Z,14.90
2022-07-25T20:43:44.726Z,14.90
2022-07-25T20:46:18.419Z,14.90
2022-07-25T20:48:52.391Z,14.90
2022-07-25T20:51:25.565Z,14.90
2022-07-25T20:53:59.168Z,14.90
2022-07-25T20:56:32.562Z,15.00
2022-07-25T20:59:10.670Z,15.00
2022-07-25T21:01:44.313Z,15.00
2022-07-25T21:04:18.959Z,15.00
2022-07-25T21:06:53.380Z,15.10
2022-07-25T21:09:32.525Z,15.10
2022-07-25T21:12:04.373Z,15.10
2022-07-25T21:14:38.081Z,15.10
2022-07-25T21:17:11.587Z,15.10
2022-07-25T21:19:45.386Z,15.10
2022-07-25T21:22:18.836Z,15.20
2022-07-25T21:24:53.058Z,15.20
2022-07-25T21:27:26.873Z,15.20
2022-07-25T21:30:00.498Z,15.30
2022-07-25T21:32:34.328Z,15.30
2022-07-25T21:35:07.945Z,15.30
2022-07-25T21:37:42.649Z,15.30
2022-07-25T21:40:17.318Z,15.40
2022-07-25T21:42:51.176Z,15.40
2022-07-25T21:45:24.707Z,15.40
2022-07-25T21:47:58.319Z,15.40
2022-07-25T21:50:44.009Z,15.40
2022-07-25T21:53:18.568Z,15.40
2022-07-25T21:55:52.165Z,15.40
2022-07-25T21:58:25.816Z,15.50
2022-07-25T22:00:59.449Z,15.50
2022-07-25T22:03:33.364Z,15.50
2022-07-25T22:06:07.630Z,15.50
2022-07-25T22:08:41.925Z,15.50
2022-07-25T22:11:38.115Z,15.50
2022-07-25T22:13:50.604Z,15.60
2022-07-25T22:16:25.165Z,15.60
2022-07-25T22:19:02.224Z,15.60
2022-07-25T22:21:38.577Z,15.60
2022-07-25T22:24:12.973Z,15.70
2022-07-25T22:26:46.985Z,15.70
2022-07-25T22:29:20.347Z,15.70
2022-07-25T22:31:54.002Z,15.70
2022-07-25T22:34:27.653Z,15.70
2022-07-25T22:37:01.454Z,15.70
2022-07-25T22:39:35.057Z,15.70
2022-07-25T22:42:08.600Z,15.70
2022-07-25T22:44:42.161Z,15.70
2022-07-25T22:47:15.991Z,15.70
2022-07-25T22:49:49.780Z,15.70
2022-07-25T22:52:23.183Z,15.70
2022-07-25T22:55:08.240Z,15.70
2022-07-25T22:57:37.570Z,15.70
2022-07-25T23:00:10.435Z,15.70
2022-07-25T23:02:44.159Z,15.60
2022-07-25T23:05:18.395Z,15.70
2022-07-25T23:07:51.982Z,15.70
2022-07-25T23:10:26.364Z,15.70
2022-07-25T23:12:59.994Z,15.70
2022-07-25T23:15:50.046Z,15.70
2022-07-25T23:18:08.193Z,15.70
2022-07-25T23:20:47.685Z,15.80
2022-07-25T23:23:21.079Z,15.80
2022-07-25T23:25:54.946Z,15.90
2022-07-25T23:28:29.081Z,15.90
2022-07-25T23:31:02.795Z,15.90
2022-07-25T23:33:36.562Z,15.90
2022-07-25T23:36:10.489Z,15.90
2022-07-25T23:38:43.967Z,15.90
2022-07-25T23:41:17.597Z,15.90
2022-07-25T23:43:56.797Z,15.90
2022-07-25T23:46:29.609Z,15.90
2022-07-25T23:49:03.399Z,15.90
2022-07-25T23:51:37.513Z,15.90
2022-07-25T23:54:11.505Z,15.90
2022-07-25T23:56:44.842Z,15.90
2022-07-25T23:59:22.065Z,15.90
